createdAt,value
2024-01-30T00:02:25.567Z,20.58
2024-01-30T00:04:54.222Z,21.95
2024-01-30T00:07:23.096Z,16.80
2024-01-30T00:09:51.899Z,21.00
2024-01-30T00:12:20.613Z,22.35
2024-01-30T00:14:52.144Z,20.75
2024-01-30T00:17:26.374Z,18.02
2024-01-30T00:19:55.342Z,18.67
2024-01-30T00:22:24.067Z,23.30
2024-01-30T00:24:52.932Z,16.75
2024-01-30T00:27:21.646Z,20.23
2024-01-30T00:29:50.366Z,19.65
2024-01-30T00:32:20.367Z,17.40
2024-01-30T00:34:50.681Z,19.27
2024-01-30T00:37:19.597Z,19.95
2024-01-30T00:39:48.233Z,17.25
2024-01-30T00:42:16.867Z,20.13
2024-01-30T00:44:45.821Z,16.77
2024-01-30T00:47:14.456Z,17.65
2024-01-30T00:49:43.191Z,20.83
2024-01-30T00:52:13.358Z,16.98
2024-01-30T00:54:42.193Z,20.63
2024-01-30T00:57:10.918Z,21.63
2024-01-30T00:59:39.517Z,16.23
2024-01-30T01:02:08.417Z,18.52
2024-01-30T01:04:37.299Z,16.95
2024-01-30T01:07:06.137Z,23.88
2024-01-30T01:09:36.160Z,15.45
2024-01-30T01:12:04.972Z,23.52
2024-01-30T01:14:33.519Z,23.45
2024-01-30T01:17:02.048Z,15.88
2024-01-30T01:19:30.824Z,17.10
2024-01-30T01:21:59.581Z,20.40
2024-01-30T01:24:28.206Z,18.60
2024-01-30T01:26:58.435Z,20.40
2024-01-30T01:29:29.861Z,18.17
2024-01-30T01:31:58.733Z,22.35
2024-01-30T01:34:30.353Z,19.55
2024-01-30T01:36:59.966Z,20.27
2024-01-30T01:39:28.474Z,19.50
2024-01-30T01:41:58.493Z,25.35
2024-01-30T01:44:27.301Z,22.98
2024-01-30T01:46:57.163Z,20.30
2024-01-30T01:49:27.661Z,17.25
2024-01-30T01:54:33.100Z,20.35
2024-01-30T01:57:03.306Z,19.63
2024-01-30T01:59:32.286Z,17.17
2024-01-30T02:02:01.283Z,24.38
2024-01-30T02:04:30.172Z,20.90
2024-01-30T02:06:58.896Z,17.00
2024-01-30T02:09:27.721Z,24.92
2024-01-30T02:11:57.034Z,15.68
2024-01-30T02:14:30.022Z,17.25
2024-01-30T02:17:00.385Z,15.70
2024-01-30T02:19:29.186Z,15.38
2024-01-30T02:21:59.287Z,21.40
2024-01-30T02:24:27.930Z,19.48
2024-01-30T02:26:56.581Z,18.80
2024-01-30T02:29:25.161Z,19.02
2024-01-30T02:31:53.881Z,22.35
2024-01-30T02:34:22.876Z,16.25
2024-01-30T02:36:51.475Z,16.58
2024-01-30T02:39:21.663Z,18.65
2024-01-30T02:41:50.154Z,19.45
2024-01-30T02:44:18.828Z,14.57
2024-01-30T02:46:47.407Z,20.50
2024-01-30T02:49:16.131Z,15.90
2024-01-30T02:51:44.972Z,18.95
2024-01-30T02:54:13.727Z,26.13
2024-01-30T02:56:43.732Z,24.95
2024-01-30T02:59:12.294Z,19.38
2024-01-30T03:01:48.013Z,22.63
2024-01-30T03:04:16.923Z,24.33
2024-01-30T03:06:49.525Z,19.70
2024-01-30T03:09:19.322Z,19.08
2024-01-30T03:11:49.334Z,18.40
2024-01-30T03:14:17.912Z,23.77
2024-01-30T03:16:47.260Z,21.00
2024-01-30T03:19:15.894Z,21.40
2024-01-30T03:21:44.596Z,21.23
2024-01-30T03:24:13.169Z,17.90
2024-01-30T03:26:41.677Z,15.95
2024-01-30T03:29:11.653Z,14.88
2024-01-30T03:31:41.313Z,18.88
2024-01-30T03:34:09.913Z,18.83
2024-01-30T03:36:38.494Z,19.90
2024-01-30T03:39:07.340Z,22.83
2024-01-30T03:41:36.010Z,18.25
2024-01-30T03:44:04.839Z,18.20
2024-01-30T03:46:34.761Z,17.95
2024-01-30T03:49:03.341Z,22.73
2024-01-30T03:51:32.263Z,19.17
2024-01-30T03:54:00.904Z,23.23
2024-01-30T03:56:29.479Z,17.80
2024-01-30T03:58:58.213Z,19.55
2024-01-30T04:01:26.845Z,25.20
2024-01-30T04:03:56.983Z,19.10
2024-01-30T04:06:25.507Z,15.02
2024-01-30T04:08:54.077Z,21.13
2024-01-30T04:11:22.764Z,19.63
2024-01-30T04:13:51.301Z,33.28
2024-01-30T04:16:24.009Z,31.27
2024-01-30T04:18:53.787Z,34.25
2024-01-30T04:21:24.773Z,25.92
2024-01-30T04:23:54.074Z,20.88
2024-01-30T04:26:22.806Z,31.35
2024-01-30T04:28:51.487Z,27.85
2024-01-30T04:31:20.133Z,31.42
2024-01-30T04:33:48.848Z,29.23
2024-01-30T04:36:17.709Z,25.58
2024-01-30T04:38:47.845Z,29.08
2024-01-30T04:41:16.485Z,29.58
2024-01-30T04:43:45.259Z,30.73
2024-01-30T04:46:13.877Z,23.08
2024-01-30T04:48:42.479Z,28.55
2024-01-30T04:51:11.167Z,28.73
2024-01-30T04:53:40.981Z,29.67
2024-01-30T04:56:11.246Z,24.65
2024-01-30T04:58:41.100Z,24.83
2024-01-30T05:01:09.967Z,26.63
2024-01-30T05:03:38.725Z,26.75
2024-01-30T05:06:07.920Z,25.58
2024-01-30T05:08:37.711Z,26.02
2024-01-30T05:11:07.490Z,28.88
2024-01-30T05:13:37.547Z,27.25
2024-01-30T05:16:06.679Z,27.17
2024-01-30T05:18:35.387Z,26.83
2024-01-30T05:21:04.865Z,28.02
2024-01-30T05:23:33.429Z,31.55
2024-01-30T05:26:02.507Z,25.30
2024-01-30T05:28:31.888Z,20.17
2024-01-30T05:31:01.960Z,32.40
2024-01-30T05:33:31.015Z,33.20
2024-01-30T05:35:59.677Z,28.13
2024-01-30T05:38:28.569Z,24.13
2024-01-30T05:40:59.254Z,25.52
2024-01-30T05:43:30.118Z,26.30
2024-01-30T05:45:58.846Z,25.10
2024-01-30T05:48:28.871Z,33.70
2024-01-30T05:50:58.086Z,33.65
2024-01-30T05:53:26.901Z,26.98
2024-01-30T05:55:58.477Z,16.88
2024-01-30T05:58:27.321Z,27.55
2024-01-30T06:00:56.122Z,23.42
2024-01-30T06:03:24.931Z,26.13
2024-01-30T06:05:55.060Z,26.27
2024-01-30T06:08:23.801Z,23.08
2024-01-30T06:10:52.331Z,18.25
2024-01-30T06:13:21.221Z,21.15
2024-01-30T06:15:49.861Z,27.35
2024-01-30T06:18:18.692Z,20.85
2024-01-30T06:20:47.268Z,28.08
2024-01-30T06:23:17.494Z,31.95
2024-01-30T06:25:46.072Z,32.15
2024-01-30T06:28:14.646Z,34.70
2024-01-30T06:30:43.317Z,34.15
2024-01-30T06:33:14.620Z,37.97
2024-01-30T06:35:45.155Z,36.22
2024-01-30T06:38:14.543Z,37.13
2024-01-30T06:40:44.532Z,33.28
2024-01-30T06:43:13.192Z,33.97
2024-01-30T06:45:42.040Z,32.55
2024-01-30T06:48:11.003Z,39.55
2024-01-30T06:50:41.936Z,35.47
2024-01-30T06:53:13.422Z,33.22
2024-01-30T06:55:42.404Z,31.65
2024-01-30T06:58:12.660Z,37.85
2024-01-30T07:00:41.448Z,33.58
2024-01-30T07:03:10.132Z,35.90
2024-01-30T07:05:38.886Z,32.63
2024-01-30T07:08:08.467Z,28.77
2024-01-30T07:10:37.333Z,33.08
2024-01-30T07:13:07.167Z,35.60
2024-01-30T07:15:37.830Z,44.72
2024-01-30T07:18:07.286Z,27.98
2024-01-30T07:20:36.698Z,27.38
2024-01-30T07:23:05.505Z,22.10
2024-01-30T07:25:37.862Z,28.38
2024-01-30T07:28:07.423Z,40.47
2024-01-30T07:30:37.482Z,73.13
2024-01-30T07:33:06.615Z,65.43
2024-01-30T07:35:35.178Z,56.00
2024-01-30T07:38:03.763Z,61.72
2024-01-30T07:40:32.572Z,52.92
2024-01-30T07:43:02.086Z,40.85
2024-01-30T07:45:33.804Z,32.72
2024-01-30T07:48:04.090Z,34.10
2024-01-30T07:50:33.257Z,25.65
2024-01-30T07:53:03.367Z,27.02
2024-01-30T07:55:34.012Z,34.42
2024-01-30T07:58:33.498Z,32.22
2024-01-30T08:01:02.487Z,29.27
2024-01-30T08:03:32.598Z,32.05
2024-01-30T08:06:01.196Z,30.98
2024-01-30T08:08:29.902Z,30.98
2024-01-30T08:10:58.546Z,30.83
2024-01-30T08:13:27.306Z,33.70
2024-01-30T08:15:56.140Z,29.42
2024-01-30T08:18:24.888Z,35.63
2024-01-30T08:20:55.000Z,27.60
2024-01-30T08:23:23.738Z,31.88
2024-01-30T08:25:53.280Z,31.80
2024-01-30T08:28:22.183Z,30.92
2024-01-30T08:30:51.194Z,26.02
2024-01-30T08:33:20.073Z,24.38
2024-01-30T08:35:48.939Z,25.58
2024-01-30T08:38:19.290Z,27.80
2024-01-30T08:40:51.933Z,27.63
2024-01-30T08:43:23.820Z,26.17
2024-01-30T08:45:53.269Z,25.58
2024-01-30T08:48:24.004Z,21.23
2024-01-30T08:50:53.097Z,26.13
2024-01-30T08:53:23.604Z,30.75
2024-01-30T08:55:52.278Z,23.70
2024-01-30T08:58:21.627Z,23.73
2024-01-30T09:00:50.672Z,30.17
2024-01-30T09:03:23.644Z,25.45
2024-01-30T09:05:52.606Z,24.65
2024-01-30T09:08:22.849Z,19.33
2024-01-30T09:10:52.270Z,27.65
2024-01-30T09:13:20.938Z,23.38
2024-01-30T09:15:49.799Z,22.65
2024-01-30T09:18:18.804Z,22.20
2024-01-30T09:20:48.770Z,19.63
2024-01-30T09:23:18.548Z,23.20
2024-01-30T09:25:48.714Z,23.33
2024-01-30T09:28:18.453Z,20.52
2024-01-30T09:30:47.544Z,22.92
2024-01-30T09:33:16.619Z,18.67
2024-01-30T09:35:45.476Z,26.55
2024-01-30T09:38:14.483Z,27.40
2024-01-30T09:40:44.312Z,26.80
2024-01-30T09:43:27.710Z,30.40
2024-01-30T09:45:57.565Z,30.92
2024-01-30T09:48:28.198Z,29.95
2024-01-30T09:51:02.393Z,29.85
2024-01-30T09:53:34.408Z,29.15
2024-01-30T09:56:04.826Z,29.58
2024-01-30T09:58:34.954Z,27.08
2024-01-30T10:01:03.865Z,25.30
2024-01-30T10:03:32.803Z,27.52
2024-01-30T10:06:02.588Z,22.67
2024-01-30T10:08:31.260Z,27.50
2024-01-30T10:11:00.140Z,29.63
2024-01-30T10:13:29.016Z,27.42
2024-01-30T10:15:59.517Z,28.75
2024-01-30T10:18:28.023Z,34.13
2024-01-30T10:20:57.233Z,29.42
2024-01-30T10:23:26.172Z,27.15
2024-01-30T10:25:55.852Z,29.02
2024-01-30T10:28:24.526Z,28.38
2024-01-30T10:31:05.084Z,29.95
2024-01-30T10:33:35.646Z,20.52
2024-01-30T10:36:07.137Z,28.33
2024-01-30T10:38:35.869Z,25.80
2024-01-30T10:41:05.550Z,28.75
2024-01-30T10:43:38.740Z,29.52
2024-01-30T10:46:14.543Z,29.73
2024-01-30T10:48:46.985Z,29.30
2024-01-30T10:51:16.594Z,27.33
2024-01-30T10:53:49.725Z,33.92
2024-01-30T10:56:19.309Z,34.08
2024-01-30T10:58:48.123Z,32.47
2024-01-30T11:01:19.161Z,34.33
2024-01-30T11:03:48.360Z,29.63
2024-01-30T11:06:20.314Z,28.42
2024-01-30T11:08:49.245Z,28.13
2024-01-30T11:11:19.982Z,28.98
2024-01-30T11:13:52.433Z,28.98
2024-01-30T11:16:22.807Z,24.33
2024-01-30T11:18:54.264Z,32.22
2024-01-30T11:21:27.940Z,27.83
2024-01-30T11:23:57.842Z,24.63
2024-01-30T11:26:30.631Z,23.50
2024-01-30T11:29:00.259Z,27.85
2024-01-30T11:31:30.273Z,26.63
2024-01-30T11:33:59.975Z,35.08
2024-01-30T11:36:31.939Z,37.15
2024-01-30T11:39:00.769Z,36.88
2024-01-30T11:41:31.559Z,38.60
2024-01-30T11:44:00.254Z,36.58
2024-01-30T11:46:30.274Z,36.10
2024-01-30T11:48:59.194Z,27.10
2024-01-30T11:51:28.225Z,32.35
2024-01-30T11:53:56.921Z,28.27
2024-01-30T11:56:28.054Z,29.67
2024-01-30T11:58:56.747Z,23.05
2024-01-30T12:01:34.061Z,21.55
2024-01-30T12:04:03.347Z,23.30
2024-01-30T12:06:32.451Z,24.20
2024-01-30T12:09:09.084Z,29.02
2024-01-30T12:11:46.633Z,22.13
2024-01-30T12:14:16.396Z,32.60
2024-01-30T12:16:46.377Z,24.42
2024-01-30T12:19:24.596Z,25.80
2024-01-30T12:21:58.036Z,23.88
2024-01-30T12:24:27.182Z,26.45
2024-01-30T12:26:59.629Z,27.60
2024-01-30T12:29:33.110Z,24.15
2024-01-30T12:32:06.291Z,22.95
2024-01-30T12:34:42.349Z,24.80
2024-01-30T12:37:23.728Z,22.73
2024-01-30T12:39:55.903Z,27.52
2024-01-30T12:42:24.592Z,27.17
2024-01-30T12:44:52.105Z,32.88
2024-01-30T12:47:24.230Z,34.50
2024-01-30T12:49:54.925Z,33.55
2024-01-30T12:52:25.307Z,28.83
2024-01-30T12:54:54.647Z,25.67
2024-01-30T12:57:23.367Z,29.58
2024-01-30T12:59:52.129Z,30.15
2024-01-30T13:02:23.763Z,25.67
2024-01-30T13:04:52.825Z,27.30
2024-01-30T13:07:22.070Z,28.63
2024-01-30T13:09:50.893Z,27.30
2024-01-30T13:12:19.694Z,30.42
2024-01-30T13:14:48.552Z,31.67
2024-01-30T13:17:17.239Z,26.27
2024-01-30T13:19:47.563Z,30.20
2024-01-30T13:22:16.045Z,32.17
2024-01-30T13:24:44.818Z,24.20
2024-01-30T13:27:13.433Z,31.50
2024-01-30T13:29:42.331Z,31.48
2024-01-30T13:32:11.136Z,32.80
2024-01-30T13:34:40.748Z,34.17
2024-01-30T13:37:11.880Z,40.00
2024-01-30T13:39:41.431Z,36.20
2024-01-30T13:42:10.126Z,36.53
2024-01-30T13:44:38.790Z,31.30
2024-01-30T13:47:07.736Z,31.80
2024-01-30T13:49:36.486Z,36.30
2024-01-30T13:52:06.144Z,32.30
2024-01-30T13:54:36.192Z,35.28
2024-01-30T13:57:05.470Z,37.42
2024-01-30T13:59:34.112Z,36.35
2024-01-30T14:02:03.004Z,37.85
2024-01-30T14:04:31.767Z,40.45
2024-01-30T14:07:04.882Z,43.33
2024-01-30T14:09:37.768Z,59.33
2024-01-30T14:12:07.138Z,57.05
2024-01-30T14:17:21.948Z,62.30
2024-01-30T14:19:50.775Z,64.43
2024-01-30T14:22:19.331Z,63.40
2024-01-30T14:24:49.292Z,58.58
2024-01-30T14:27:19.201Z,54.20
2024-01-30T14:29:48.014Z,54.28
2024-01-30T14:32:16.784Z,54.47
2024-01-30T14:34:46.249Z,48.35
2024-01-30T14:37:14.955Z,51.88
2024-01-30T14:39:43.520Z,47.17
2024-01-30T14:42:13.642Z,45.90
2024-01-30T14:44:42.235Z,44.60
2024-01-30T14:47:11.448Z,43.20
2024-01-30T14:49:40.083Z,48.58
2024-01-30T14:52:10.512Z,43.17
2024-01-30T14:54:39.266Z,42.22
2024-01-30T14:57:07.964Z,45.70
2024-01-30T14:59:38.083Z,57.72
2024-01-30T15:02:06.777Z,58.92
2024-01-30T15:04:36.603Z,60.10
2024-01-30T15:07:05.826Z,55.10
2024-01-30T15:09:34.822Z,40.20
2024-01-30T15:12:04.081Z,42.90
2024-01-30T15:14:32.718Z,49.75
2024-01-30T15:17:03.371Z,51.25
2024-01-30T15:19:32.246Z,48.47
2024-01-30T15:22:00.827Z,49.20
2024-01-30T15:24:29.502Z,51.65
2024-01-30T15:26:58.081Z,56.60
2024-01-30T15:29:28.335Z,56.15
2024-01-30T15:31:57.002Z,53.40
2024-01-30T15:34:27.186Z,53.00
2024-01-30T15:36:55.886Z,63.85
2024-01-30T15:39:26.874Z,67.97
2024-01-30T15:41:56.557Z,65.28
2024-01-30T15:44:25.459Z,58.97
2024-01-30T15:46:54.135Z,58.35
2024-01-30T15:49:22.981Z,57.92
2024-01-30T15:51:52.868Z,56.53
2024-01-30T15:54:21.774Z,56.05
2024-01-30T15:56:50.692Z,57.95
2024-01-30T15:59:19.448Z,61.90
2024-01-30T16:01:50.595Z,56.30
2024-01-30T16:04:19.407Z,67.43
2024-01-30T16:06:48.174Z,62.95
2024-01-30T16:09:18.643Z,63.08
2024-01-30T16:11:47.316Z,61.38
2024-01-30T16:14:16.350Z,63.97
2024-01-30T16:16:45.512Z,60.15
2024-01-30T16:19:14.506Z,58.03
2024-01-30T16:21:45.641Z,53.40
2024-01-30T16:24:14.403Z,61.88
2024-01-30T16:26:44.428Z,59.58
2024-01-30T16:29:13.199Z,77.00
2024-01-30T16:31:42.041Z,65.78
2024-01-30T16:34:10.931Z,69.55
2024-01-30T16:36:41.072Z,66.43
2024-01-30T16:39:10.140Z,61.28
2024-01-30T16:41:39.303Z,66.88
2024-01-30T16:44:09.456Z,72.30
2024-01-30T16:46:39.629Z,64.88
2024-01-30T16:49:08.514Z,62.92
2024-01-30T16:51:37.177Z,58.67
2024-01-30T16:54:05.739Z,65.85
2024-01-30T16:56:34.232Z,57.97
2024-01-30T16:59:03.121Z,59.20
2024-01-30T17:01:33.281Z,56.38
2024-01-30T17:04:02.236Z,60.55
2024-01-30T17:06:31.043Z,62.40
2024-01-30T17:08:59.861Z,69.75
2024-01-30T17:11:28.457Z,63.40
2024-01-30T17:13:57.162Z,68.07
2024-01-30T17:16:25.873Z,53.53
2024-01-30T17:18:55.984Z,62.38
2024-01-30T17:21:25.097Z,56.38
2024-01-30T17:23:53.785Z,61.13
2024-01-30T17:26:22.964Z,69.32
2024-01-30T17:28:51.774Z,65.10
2024-01-30T17:31:20.405Z,59.50
2024-01-30T17:33:49.157Z,59.08
2024-01-30T17:36:19.294Z,60.38
2024-01-30T17:38:48.411Z,64.65
2024-01-30T17:41:16.939Z,64.47
2024-01-30T17:43:45.623Z,61.83
2024-01-30T17:46:14.156Z,57.75
2024-01-30T17:48:44.105Z,49.83
2024-01-30T17:51:14.529Z,53.50
2024-01-30T17:53:44.752Z,56.88
2024-01-30T17:56:13.364Z,52.63
2024-01-30T17:58:42.198Z,59.40
2024-01-30T18:01:12.489Z,53.72
2024-01-30T18:03:42.386Z,62.03
2024-01-30T18:06:11.804Z,63.20
2024-01-30T18:08:40.276Z,53.30
2024-01-30T18:11:11.536Z,61.13
2024-01-30T18:13:40.177Z,54.03
2024-01-30T18:16:08.772Z,55.47
2024-01-30T18:18:37.609Z,62.25
2024-01-30T18:21:08.348Z,58.72
2024-01-30T18:23:37.160Z,69.45
2024-01-30T18:26:06.070Z,64.22
2024-01-30T18:28:36.341Z,71.07
2024-01-30T18:31:05.749Z,67.07
2024-01-30T18:33:34.314Z,61.58
2024-01-30T18:36:03.203Z,69.18
2024-01-30T18:38:34.814Z,59.85
2024-01-30T18:41:06.851Z,71.97
2024-01-30T18:43:37.378Z,77.53
2024-01-30T18:46:06.396Z,67.72
2024-01-30T18:48:36.147Z,71.03
2024-01-30T18:51:05.327Z,84.38
2024-01-30T18:53:34.212Z,66.35
2024-01-30T18:56:03.832Z,69.85
2024-01-30T18:58:32.434Z,67.72
2024-01-30T19:01:02.486Z,90.15
2024-01-30T19:03:32.070Z,92.72
2024-01-30T19:06:00.901Z,112.68
2024-01-30T19:08:29.757Z,109.63
2024-01-30T19:10:58.372Z,104.95
2024-01-30T19:13:27.274Z,100.18
2024-01-30T19:15:56.301Z,93.55
2024-01-30T19:18:26.751Z,87.93
2024-01-30T19:20:55.356Z,83.80
2024-01-30T19:23:23.921Z,74.65
2024-01-30T19:25:52.825Z,77.53
2024-01-30T19:28:21.503Z,77.40
2024-01-30T19:30:51.001Z,80.28
2024-01-30T19:33:19.679Z,90.63
2024-01-30T19:35:49.742Z,82.63
2024-01-30T19:38:19.780Z,78.05
2024-01-30T19:40:49.924Z,77.15
2024-01-30T19:43:20.370Z,75.10
2024-01-30T19:45:50.141Z,68.32
2024-01-30T19:48:18.959Z,71.20
2024-01-30T19:50:47.673Z,72.60
2024-01-30T19:53:17.702Z,73.93
2024-01-30T19:55:46.235Z,73.05
2024-01-30T19:58:15.031Z,68.57
2024-01-30T20:00:44.175Z,70.32
2024-01-30T20:03:12.764Z,66.95
2024-01-30T20:05:41.488Z,62.50
2024-01-30T20:08:10.078Z,68.30
2024-01-30T20:10:40.525Z,48.33
2024-01-30T20:13:09.142Z,48.15
2024-01-30T20:15:37.782Z,49.58
2024-01-30T20:18:06.969Z,46.78
2024-01-30T20:20:35.541Z,49.22
2024-01-30T20:23:04.089Z,51.03
2024-01-30T20:25:32.756Z,54.05
2024-01-30T20:28:03.515Z,44.45
2024-01-30T20:30:32.102Z,47.60
2024-01-30T20:33:00.987Z,46.72
2024-01-30T20:35:29.751Z,43.13
2024-01-30T20:37:58.205Z,43.70
2024-01-30T20:40:26.849Z,42.60
2024-01-30T20:42:55.439Z,37.88
2024-01-30T20:45:25.449Z,36.08
2024-01-30T20:47:54.063Z,40.53
2024-01-30T20:50:22.664Z,46.05
2024-01-30T20:52:51.234Z,43.53
2024-01-30T20:55:19.839Z,43.67
2024-01-30T20:57:48.461Z,37.17
2024-01-30T21:00:18.019Z,40.78
2024-01-30T21:02:47.905Z,36.15
2024-01-30T21:05:23.627Z,38.03
2024-01-30T21:07:52.935Z,40.47
2024-01-30T21:10:23.870Z,33.15
2024-01-30T21:12:53.030Z,41.67
2024-01-30T21:15:26.235Z,40.38
2024-01-30T21:17:56.365Z,53.40
2024-01-30T21:20:25.145Z,46.10
2024-01-30T21:22:53.802Z,59.97
2024-01-30T21:25:22.789Z,56.38
2024-01-30T21:27:51.399Z,65.93
2024-01-30T21:30:20.057Z,71.22
2024-01-30T21:32:48.655Z,64.03
2024-01-30T21:35:18.716Z,49.60
2024-01-30T21:37:47.230Z,63.42
2024-01-30T21:40:18.563Z,52.03
2024-01-30T21:42:52.340Z,54.50
2024-01-30T21:45:22.855Z,53.17
2024-01-30T21:47:51.715Z,52.67
2024-01-30T21:50:22.120Z,50.28
2024-01-30T21:52:50.856Z,49.35
2024-01-30T21:55:19.487Z,57.20
2024-01-30T21:57:48.290Z,49.55
2024-01-30T22:00:17.741Z,44.38
2024-01-30T22:02:46.631Z,38.38
2024-01-30T22:05:15.343Z,40.33
2024-01-30T22:07:45.534Z,41.13
2024-01-30T22:10:14.539Z,47.28
2024-01-30T22:12:43.113Z,46.78
2024-01-30T22:15:12.652Z,52.22
2024-01-30T22:17:41.360Z,61.88
2024-01-30T22:20:10.683Z,78.13
2024-01-30T22:22:39.343Z,62.03
2024-01-30T22:25:09.830Z,74.25
2024-01-30T22:27:42.001Z,76.90
2024-01-30T22:30:11.214Z,68.32
2024-01-30T22:32:39.761Z,68.65
2024-01-30T22:35:11.743Z,65.50
2024-01-30T22:37:40.555Z,66.10
2024-01-30T22:40:11.628Z,64.85
2024-01-30T22:42:40.337Z,56.28
2024-01-30T22:45:09.781Z,60.03
2024-01-30T22:47:38.427Z,60.55
2024-01-30T22:50:07.386Z,48.63
2024-01-30T22:52:36.251Z,33.95
2024-01-30T22:55:05.057Z,36.42
2024-01-30T22:57:35.149Z,32.38
2024-01-30T23:00:08.638Z,33.15
2024-01-30T23:02:39.217Z,36.20
2024-01-30T23:05:08.241Z,33.05
2024-01-30T23:07:41.161Z,32.65
2024-01-30T23:10:10.879Z,36.72
2024-01-30T23:12:41.184Z,32.78
2024-01-30T23:15:09.787Z,37.13
2024-01-30T23:17:40.083Z,35.08
2024-01-30T23:20:11.086Z,34.97
2024-01-30T23:22:39.984Z,35.08
2024-01-30T23:25:11.761Z,33.92
2024-01-30T23:27:41.860Z,37.53
2024-01-30T23:30:11.227Z,32.60
2024-01-30T23:32:43.237Z,29.02
2024-01-30T23:35:12.737Z,32.60
2024-01-30T23:37:41.743Z,34.08
2024-01-30T23:40:14.119Z,29.02
2024-01-30T23:42:44.437Z,35.60
2024-01-30T23:45:13.146Z,37.70
2024-01-30T23:47:41.765Z,29.60
2024-01-30T23:50:10.985Z,32.15
2024-01-30T23:52:43.561Z,35.58
2024-01-30T23:55:12.469Z,29.98
2024-01-30T23:57:41.070Z,37.55
